createdAt,value
2018-05-13T00:02:33.936Z,79.3
2018-05-13T00:07:34.005Z,79.5
2018-05-13T00:12:34.019Z,81
2018-05-13T00:17:35.470Z,80.8
2018-05-13T00:22:34.112Z,80.6
2018-05-13T00:27:34.058Z,80.9
2018-05-13T00:32:37.325Z,80.4
2018-05-13T00:37:37.027Z,81.1
2018-05-13T00:42:49.451Z,81.3
2018-05-13T00:47:49.133Z,81
2018-05-13T00:52:49.135Z,80.9
2018-05-13T00:57:49.303Z,81.4
2018-05-13T01:02:49.575Z,81.1
2018-05-13T01:07:49.156Z,82.3
2018-05-13T01:12:49.133Z,81.8
2018-05-13T01:17:51.701Z,82.7
2018-05-13T01:22:51.437Z,83.5
2018-05-13T01:28:03.497Z,83.7
2018-05-13T01:33:03.214Z,83.9
2018-05-13T01:38:03.218Z,82.7
2018-05-13T01:43:03.437Z,82.7
2018-05-13T01:48:03.244Z,82.6
2018-05-13T01:53:03.245Z,83
2018-05-13T01:58:03.231Z,83.2
2018-05-13T02:03:03.236Z,83.5
2018-05-13T02:08:03.240Z,83.7
2018-05-13T02:13:14.684Z,83.4
2018-05-13T02:18:14.454Z,82.8
2018-05-13T02:23:14.408Z,83.7
2018-05-13T02:28:14.424Z,82.5
2018-05-13T02:33:14.410Z,82.7
2018-05-13T02:38:14.418Z,85.2
2018-05-13T02:43:14.576Z,84.1
2018-05-13T02:48:15.075Z,84.2
2018-05-13T02:53:14.798Z,84.1
2018-05-13T02:58:27.435Z,85.8
2018-05-13T03:03:27.112Z,86.9
2018-05-13T03:08:27.115Z,87.8
2018-05-13T03:13:27.108Z,87.3
2018-05-13T03:18:27.120Z,86.2
2018-05-13T03:23:27.136Z,85.5
2018-05-13T03:28:27.124Z,86.3
2018-05-13T03:33:27.550Z,84.8
2018-05-13T03:38:27.261Z,86.2
2018-05-13T03:43:40.115Z,87
2018-05-13T03:48:39.822Z,86.2
2018-05-13T03:53:39.837Z,86.1
2018-05-13T03:58:39.969Z,85.2
2018-05-13T04:03:39.861Z,85.2
2018-05-13T04:08:39.856Z,84.6
2018-05-13T04:13:39.849Z,85
2018-05-13T04:18:40.967Z,84.8
2018-05-13T04:23:40.694Z,84.1
2018-05-13T04:28:52.885Z,83.5
2018-05-13T04:33:52.613Z,81.6
2018-05-13T04:38:52.611Z,82.2
2018-05-13T04:43:52.776Z,81.3
2018-05-13T04:48:52.600Z,79.9
2018-05-13T04:53:52.626Z,80.1
2018-05-13T04:58:52.630Z,79.4
2018-05-13T05:03:52.877Z,79.8
2018-05-13T05:08:53.098Z,78.8
2018-05-13T05:14:05.653Z,78.6
2018-05-13T05:19:05.380Z,76.9
2018-05-13T05:24:05.537Z,76.5
2018-05-13T05:29:05.584Z,75.6
2018-05-13T05:34:05.387Z,74
2018-05-13T05:39:05.543Z,74.4
2018-05-13T05:44:05.397Z,73.4
2018-05-13T05:49:05.653Z,72.2
2018-05-13T05:54:05.851Z,70.7
2018-05-13T05:59:17.973Z,71.2
2018-05-13T06:04:17.705Z,70.7
2018-05-13T06:09:17.682Z,70.5
2018-05-13T06:14:17.683Z,69.4
2018-05-13T06:19:17.711Z,68.9
2018-05-13T06:24:17.701Z,68.5
2018-05-13T06:29:17.688Z,68.2
2018-05-13T06:34:17.737Z,67.7
2018-05-13T06:39:17.746Z,66.4
2018-05-13T06:44:29.867Z,65.9
2018-05-13T06:49:29.789Z,64.6
2018-05-13T06:54:29.607Z,64.1
2018-05-13T06:59:29.733Z,63.3
2018-05-13T07:04:29.601Z,64.5
2018-05-13T07:09:30.115Z,64.1
2018-05-13T07:14:30.118Z,62.5
2018-05-13T07:19:32.203Z,63.3
2018-05-13T07:24:31.961Z,62.8
2018-05-13T07:29:45.006Z,61
2018-05-13T07:34:44.517Z,60
2018-05-13T07:39:44.619Z,60.5
2018-05-13T07:44:44.553Z,59.8
2018-05-13T07:49:44.557Z,59.3
2018-05-13T07:54:44.607Z,57.9
2018-05-13T07:59:44.690Z,59.3
2018-05-13T08:04:47.621Z,58.9
2018-05-13T08:09:47.337Z,57.7
2018-05-13T08:14:59.798Z,57.8
2018-05-13T08:19:59.746Z,57.4
2018-05-13T08:24:59.500Z,56
2018-05-13T08:29:59.494Z,56.2
2018-05-13T08:35:01.165Z,56.4
2018-05-13T08:39:59.490Z,55.9
2018-05-13T08:44:59.518Z,55.5
2018-05-13T08:50:02.482Z,54.5
2018-05-13T08:55:02.395Z,53.8
2018-05-13T09:00:20.517Z,53.2
2018-05-13T09:05:20.258Z,53.2
2018-05-13T09:10:20.244Z,53.6
2018-05-13T09:15:20.262Z,51.9
2018-05-13T09:20:20.267Z,50.9
2018-05-13T09:25:20.528Z,51.2
2018-05-13T09:30:20.506Z,49.7
2018-05-13T09:35:21.215Z,49.7
2018-05-13T09:40:20.947Z,49.6
2018-05-13T09:45:34.123Z,50.4
2018-05-13T09:50:34.213Z,49.5
2018-05-13T09:55:33.939Z,50.1
2018-05-13T10:00:33.841Z,48.9
2018-05-13T10:05:33.893Z,45.2
2018-05-13T10:10:33.797Z,46.7
2018-05-13T10:15:33.963Z,45.6
2018-05-13T10:20:36.169Z,44.6
2018-05-13T10:25:36.236Z,44.8
2018-05-13T10:30:46.444Z,45.5
2018-05-13T10:35:46.397Z,43.3
2018-05-13T10:40:46.186Z,44.4
2018-05-13T10:45:46.205Z,42.6
2018-05-13T10:50:46.389Z,42.1
2018-05-13T10:55:46.216Z,42.1
2018-05-13T11:00:46.300Z,41.3
2018-05-13T11:05:46.216Z,42
2018-05-13T11:10:46.424Z,40.9
2018-05-13T11:15:46.214Z,40.4
2018-05-13T11:20:46.596Z,38.3
2018-05-13T11:25:46.230Z,38.7
2018-05-13T11:30:46.671Z,39.6
2018-05-13T11:35:46.431Z,38.5
2018-05-13T11:41:01.271Z,40.6
2018-05-13T11:46:00.990Z,43.3
2018-05-13T11:51:00.989Z,45.8
2018-05-13T11:56:01.123Z,44.8
2018-05-13T12:01:01.199Z,45.7
2018-05-13T12:06:01.006Z,46.8
2018-05-13T12:11:01.017Z,47.3
2018-05-13T12:16:01.835Z,47.7
2018-05-13T12:21:02.065Z,50.1
2018-05-13T12:26:13.980Z,52.2
2018-05-13T12:31:13.907Z,53
2018-05-13T12:36:13.714Z,55.5
2018-05-13T12:41:13.889Z,60.9
2018-05-13T12:46:13.901Z,64
2018-05-13T12:51:13.731Z,64.5
2018-05-13T12:56:13.720Z,65.1
2018-05-13T13:01:13.963Z,67.5
2018-05-13T13:06:17.209Z,64.6
2018-05-13T13:11:13.675Z,62.9
2018-05-13T13:16:13.733Z,63
2018-05-13T13:21:13.727Z,61.9
2018-05-13T13:26:13.735Z,65.2
2018-05-13T13:31:13.888Z,65.3
2018-05-13T13:36:31.222Z,75.7
2018-05-13T13:41:31.074Z,74.8
2018-05-13T13:46:36.544Z,73.5
2018-05-13T13:51:34.683Z,78
2018-05-13T13:56:46.032Z,73.8
2018-05-13T14:01:46.116Z,78.4
2018-05-13T14:06:45.773Z,75.1
2018-05-13T14:11:45.781Z,71.2
2018-05-13T14:16:45.854Z,70.1
2018-05-13T14:21:45.989Z,69.8
2018-05-13T14:26:45.780Z,58.5
2018-05-13T14:31:46.598Z,55.9
2018-05-13T14:36:46.490Z,54.6
2018-05-13T14:41:58.554Z,52.5
2018-05-13T14:46:58.234Z,52.4
2018-05-13T14:51:58.246Z,51.7
2018-05-13T14:56:58.188Z,51.2
2018-05-13T15:01:58.437Z,51.8
2018-05-13T15:06:58.248Z,50.6
2018-05-13T15:11:58.370Z,49.7
2018-05-13T15:16:58.249Z,50.3
2018-05-13T15:21:58.483Z,48.5
2018-05-13T15:26:58.268Z,49.4
2018-05-13T15:31:58.421Z,48.7
2018-05-13T15:36:58.277Z,48
2018-05-13T15:42:02.106Z,47.8
2018-05-13T15:47:02.082Z,49.5
2018-05-13T15:52:12.938Z,49.7
2018-05-13T15:57:12.677Z,49.1
2018-05-13T16:02:12.926Z,50.5
2018-05-13T16:07:13.022Z,50.7
2018-05-13T16:12:13.175Z,49.4
2018-05-13T16:17:12.686Z,50
2018-05-13T16:22:12.656Z,50.4
2018-05-13T16:27:13.323Z,50.5
2018-05-13T16:32:13.086Z,49.6
2018-05-13T16:37:25.259Z,50.3
2018-05-13T16:42:25.137Z,51.4
2018-05-13T16:47:25.296Z,51.9
2018-05-13T16:52:25.027Z,51.6
2018-05-13T16:57:25.214Z,53.1
2018-05-13T17:02:25.328Z,53.4
2018-05-13T17:07:25.039Z,53.9
2018-05-13T17:12:25.239Z,53.5
2018-05-13T17:17:25.400Z,54.3
2018-05-13T17:22:39.159Z,54.1
2018-05-13T17:27:38.869Z,54.6
2018-05-13T17:32:38.906Z,54.7
2018-05-13T17:37:39.020Z,55.6
2018-05-13T17:42:38.882Z,55.3
2018-05-13T17:47:39.119Z,55.9
2018-05-13T17:52:38.885Z,55.2
2018-05-13T17:57:39.027Z,56.4
2018-05-13T18:02:39.150Z,56.6
2018-05-13T18:07:38.966Z,55.9
2018-05-13T18:12:38.946Z,56.2
2018-05-13T18:17:38.921Z,55.1
2018-05-13T18:22:40.185Z,55.8
2018-05-13T18:27:40.164Z,56.4
2018-05-13T18:32:53.181Z,55.5
2018-05-13T18:37:52.908Z,54.9
2018-05-13T18:42:52.893Z,55.6
2018-05-13T18:47:52.920Z,55.4
2018-05-13T18:52:52.912Z,56.1
2018-05-13T18:57:52.960Z,56.2
2018-05-13T19:02:52.940Z,56.4
2018-05-13T19:07:53.752Z,56
2018-05-13T19:12:53.144Z,56.7
2018-05-13T19:18:05.186Z,57.6
2018-05-13T19:23:04.900Z,57.2
2018-05-13T19:28:05.055Z,58.3
2018-05-13T19:33:04.930Z,57.9
2018-05-13T19:38:04.974Z,59.1
2018-05-13T19:43:04.912Z,59.7
2018-05-13T19:48:04.889Z,59.7
2018-05-13T19:53:06.701Z,58.8
2018-05-13T19:58:07.458Z,60
2018-05-13T20:03:22.505Z,59.8
2018-05-13T20:08:21.566Z,60.5
2018-05-13T20:13:21.572Z,60.1
2018-05-13T20:18:21.705Z,60.6
2018-05-13T20:23:21.716Z,60.3
2018-05-13T20:28:21.555Z,60.6
2018-05-13T20:33:21.548Z,61.3
2018-05-13T20:38:24.662Z,61.9
2018-05-13T20:43:24.543Z,62
2018-05-13T20:48:34.815Z,61.9
2018-05-13T20:53:34.524Z,62.2
2018-05-13T20:58:34.524Z,63.1
2018-05-13T21:03:34.737Z,63.8
2018-05-13T21:08:34.561Z,63.6
2018-05-13T21:13:34.561Z,63.8
2018-05-13T21:18:34.854Z,64.2
2018-05-13T21:23:38.420Z,63.8
2018-05-13T21:28:38.350Z,64.3
2018-05-13T21:33:51.741Z,64.2
2018-05-13T21:38:51.534Z,63.3
2018-05-13T21:43:51.386Z,63.8
2018-05-13T21:48:51.610Z,64.1
2018-05-13T21:53:51.462Z,64.5
2018-05-13T21:58:51.675Z,64.6
2018-05-13T22:03:51.478Z,63.7
2018-05-13T22:08:51.797Z,63.9
2018-05-13T22:13:51.911Z,63.8
2018-05-13T22:19:03.604Z,63.9
2018-05-13T22:24:03.547Z,63.9
2018-05-13T22:29:03.558Z,64
2018-05-13T22:34:03.439Z,64.5
2018-05-13T22:39:03.541Z,64
2018-05-13T22:44:03.340Z,64.5
2018-05-13T22:49:03.530Z,63.8
2018-05-13T22:54:04.070Z,64.4
2018-05-13T22:59:03.685Z,63.9
2018-05-13T23:04:17.101Z,63.6
2018-05-13T23:09:17.253Z,64.1
2018-05-13T23:14:16.633Z,64.1
2018-05-13T23:19:16.827Z,63.4
2018-05-13T23:24:16.630Z,63.8
2018-05-13T23:29:16.834Z,63.7
2018-05-13T23:34:16.801Z,63.7
2018-05-13T23:39:17.740Z,63.4
2018-05-13T23:44:17.693Z,62.9
2018-05-13T23:49:28.796Z,62.3
2018-05-13T23:54:28.674Z,62.4
2018-05-13T23:59:28.745Z,61.9
